Prominent Ace — HPWB — position and weather

sailwx.info

Track history (hours):
 
Tides and Currents Weather Stations Pressure Air Temp Water Temp Dewpoint Dewpoint Depression Visibility Wind Speed Wind Dir Waves Ship Positions

Prominent Ace

Last reported at 2017-Oct-24 06:52 UTC. Time now 2017-Nov-17 19:36 UTC.
Position N 34°51' E 140°08'.
Warning: this ship's position is 24 days out of date.

Length 199.5 m; beam 32.3 m.

Type: Cargo ship. MMSI: 356181000.

Date/timePositionNaut miles runAvg speedWind from/ knotsBaromVisibWave heightAir tempDewpointWater temp
2017-Oct-24 06:52N 34°51' E 140°08'1317.6
2017-Oct-24 06:07N 34°44' E 139°54'519.0
2017-Oct-24 05:50N 34°43' E 139°47'919.2
2017-Oct-24 05:22N 34°40' E 139°37'  
2017-Oct-18 07:47N 35°01' E 139°29'414.1
2017-Oct-18 07:28N 35°01' E 139°34'715.5
2017-Oct-18 07:00N 35°05' E 139°41'713.6
2017-Oct-18 06:30N 35°11' E 139°46'611.4
2017-Oct-18 06:00N 35°17' E 139°45'612.6
2017-Oct-18 05:30N 35°23' E 139°42'611.3
2017-Oct-18 05:00N 35°28' E 139°42'1 1.3
2017-Oct-18 04:28N 35°28' E 139°41'0 0.0
2017-Oct-18 03:58N 35°28' E 139°41'0 0.0
2017-Oct-18 03:28N 35°28' E 139°41'0 0.0
2017-Oct-18 02:58N 35°28' E 139°41'0 0.0
2017-Oct-18 02:28N 35°28' E 139°41'0 0.0
2017-Oct-18 01:58N 35°28' E 139°41'0 0.0
2017-Oct-18 01:28N 35°28' E 139°41'0 0.0
2017-Oct-18 00:58N 35°28' E 139°41'0 0.0
2017-Oct-18 00:28N 35°28' E 139°41'0 0.0
2017-Oct-17 23:58N 35°28' E 139°41'0 0.0
2017-Oct-17 23:28N 35°28' E 139°41'0 0.0
2017-Oct-17 22:58N 35°28' E 139°41'0 0.4
2017-Oct-17 22:30N 35°28' E 139°41'1 2.5
2017-Oct-17 22:00N 35°28' E 139°42'4 7.1
2017-Oct-17 21:30N 35°25' E 139°46'510.3
2017-Oct-17 21:00N 35°20' E 139°44'510.3
2017-Oct-17 20:30N 35°15' E 139°47'611.2
2017-Oct-17 20:00N 35°10' E 139°47'4 7.1
2017-Oct-17 19:30N 35°06' E 139°47'5 9.9
2017-Oct-17 19:00N 35°02' E 139°44'510.4
2017-Oct-17 18:30N 34°57' E 139°42'510.4
2017-Oct-17 18:00N 34°52' E 139°39'611.5
2017-Oct-17 17:29N 34°47' E 139°36'  
Track history (hours):
 
Tides and Currents Weather Stations Pressure Air Temp Water Temp Dewpoint Dewpoint Depression Visibility Wind Speed Wind Dir Waves Ship Positions

Prominent Ace

Last reported at 2017-Oct-24 06:52 UTC. Time now 2017-Nov-17 19:36 UTC.
Position N 34°51' E 140°08'.
Warning: this ship's position is 24 days out of date.

Length 199.5 m; beam 32.3 m.

Type: Cargo ship. MMSI: 356181000.

Date/timePositionNaut miles runAvg speedWind from/ knotsBaromVisibWave heightAir tempDewpointWater temp
2017-Oct-24 06:52N 34°51' E 140°08'1317.6
2017-Oct-24 06:07N 34°44' E 139°54'519.0
2017-Oct-24 05:50N 34°43' E 139°47'919.2
2017-Oct-24 05:22N 34°40' E 139°37'  
2017-Oct-18 07:47N 35°01' E 139°29'414.1
2017-Oct-18 07:28N 35°01' E 139°34'715.5
2017-Oct-18 07:00N 35°05' E 139°41'713.6
2017-Oct-18 06:30N 35°11' E 139°46'611.4
2017-Oct-18 06:00N 35°17' E 139°45'612.6
2017-Oct-18 05:30N 35°23' E 139°42'611.3
2017-Oct-18 05:00N 35°28' E 139°42'1 1.3
2017-Oct-18 04:28N 35°28' E 139°41'0 0.0
2017-Oct-18 03:58N 35°28' E 139°41'0 0.0
2017-Oct-18 03:28N 35°28' E 139°41'0 0.0
2017-Oct-18 02:58N 35°28' E 139°41'0 0.0
2017-Oct-18 02:28N 35°28' E 139°41'0 0.0
2017-Oct-18 01:58N 35°28' E 139°41'0 0.0
2017-Oct-18 01:28N 35°28' E 139°41'0 0.0
2017-Oct-18 00:58N 35°28' E 139°41'0 0.0
2017-Oct-18 00:28N 35°28' E 139°41'0 0.0
2017-Oct-17 23:58N 35°28' E 139°41'0 0.0
2017-Oct-17 23:28N 35°28' E 139°41'0 0.0
2017-Oct-17 22:58N 35°28' E 139°41'0 0.4
2017-Oct-17 22:30N 35°28' E 139°41'1 2.5
2017-Oct-17 22:00N 35°28' E 139°42'4 7.1
2017-Oct-17 21:30N 35°25' E 139°46'510.3
2017-Oct-17 21:00N 35°20' E 139°44'510.3
2017-Oct-17 20:30N 35°15' E 139°47'611.2
2017-Oct-17 20:00N 35°10' E 139°47'4 7.1
2017-Oct-17 19:30N 35°06' E 139°47'5 9.9
2017-Oct-17 19:00N 35°02' E 139°44'510.4
2017-Oct-17 18:30N 34°57' E 139°42'510.4
2017-Oct-17 18:00N 34°52' E 139°39'611.5
2017-Oct-17 17:29N 34°47' E 139°36'  

Dump ship's entire track history